Accueil
METAR-TAF:

METAR-TAF

Aéroports :

Belgaum, Inde

latitude: 15-51-33N, longitude: 74-37-03E, altitude: 758 m

Observation

Le bulletin a été fait il y a 9 heures et 17 minutes, à 14:00 UTC
Vent calme
Température 23°C
Humidité 47%
Pression 1018 hPa
Visibilité: 8000 m

METAR: VOBM 221400Z 00000KT 8000 NSC 23/11 Q1018

Heure: 04:47 (23:17 UTC)

Prévision

Le bulletin a été fait il y a 6 heures et 17 minutes, à 17:00 UTC
Prévision valable du 22 à 18 UTC au 23 à 03 UTC
Vent 5 kt de est/sud-est
Visibilité: 6000 m
Quelques nuages à une hauteur de 1500 ft
Temporairement
du 23 à 00 UTC au 23 à 03 UTC
Visibilité: 3000 m
Nuages épars à une hauteur de 600 ft
brume

TAF: VOBM 221700Z 2218/2303 11005KT 6000 FEW015 TEMPO 2300/2303 3000 BR SCT006

Observations et prévisions météorologiques de plus de 4000 aéroports (messages METAR et TAF).

Les stations disponibles sont représentées par des disques jaunes et rouges sur la carte.

Passer la souris dessus pour voir le nom de la station.

Cliquer dessus pour voir les observations et prévisions météorologiques.

Pour changer de carte: cliquez sur les boutons verts avec une croix noire pour zoomer, sur le bouton vert avec un tiret pour effectuer un zoom arrière, ou sur les flèches vertes pour les cartes adjacentes.


METAR-TAF: